Time;durP1;ratioP1;P1;durP2;ratioP2;P2;SDS_P1;SDS_P2;PMS_P1;PMS_P2;Temp;Humidity;BMP_temperature;BMP_pressure;BME280_temperature;BME280_humidity;BME280_pressure;Samples;Min_cycle;Max_cycle;Signal;HPM_P1;HPM_P2
2023/06/05 00:02:06;;;;;;;;;;;;;;;18.35;44.71;98340.78;7387134;19;19928;-80
2023/06/05 00:04:35;;;;;;;;;;;;;;;18.32;47.10;98340.34;7387567;19;19915;-79
2023/06/05 00:07:02;;;;;;;;;;;;;;;18.23;45.09;98339.72;7388243;19;19922;-82
2023/06/05 00:09:29;;;;;;;;;;;;;;;18.17;43.69;98338.69;7389848;19;19914;-82
2023/06/05 00:11:56;;;;;;;;;;;;;;;18.18;43.96;98334.16;7392579;19;20355;-80
2023/06/05 00:14:22;;;;;;;;;;;;;;;18.17;45.90;98336.03;7385734;19;20264;-83
2023/06/05 00:16:52;;;;;;;;;;;;;;;18.14;44.58;98341.78;7389500;19;19990;-79
2023/06/05 00:19:19;;;;;;;;;;;;;;;18.13;47.38;98336.63;7391431;19;20026;-82
2023/06/05 00:21:50;;;;;;;;;;;;;;;18.07;47.13;98340.13;7392566;19;19918;-79
2023/06/05 00:24:17;;;;;;;;;;;;;;;17.99;44.19;98344.66;7386656;19;19948;-81
2023/06/05 00:26:44;;;;;;;;;;;;;;;17.89;44.86;98346.91;7389748;19;19915;-80
2023/06/05 00:29:11;;;;;;;;;;;;;;;17.89;44.99;98340.72;7391406;19;20522;-82
2023/06/05 00:31:37;;;;;;;;;;;;;;;17.81;44.54;98340.91;7395067;19;19930;-81
2023/06/05 00:34:04;;;;;;;;;;;;;;;17.78;43.56;98342.13;7388677;19;19915;-80
2023/06/05 00:36:32;;;;;;;;;;;;;;;17.81;44.31;98341.75;7390525;19;19927;-80
2023/06/05 00:38:59;;;;;;;;;;;;;;;17.84;47.23;98340.50;7392298;19;19948;-83
2023/06/05 00:41:26;;;;;;;;;;;;;;;17.84;48.39;98335.16;7391244;19;19921;-79
2023/06/05 00:43:52;;;;;;;;;;;;;;;17.82;47.37;98338.03;7389614;19;19927;-80
2023/06/05 00:46:20;;;;;;;;;;;;;;;17.78;46.31;98336.75;7395051;19;19922;-82
2023/06/05 00:48:48;;;;;;;;;;;;;;;17.73;46.39;98340.03;7393902;19;19936;-79
2023/06/05 00:51:15;;;;;;;;;;;;;;;17.72;47.98;98346.44;7393185;19;19919;-81
2023/06/05 00:53:44;;;;;;;;;;;;;;;17.65;45.76;98347.44;7391685;19;19923;-79
2023/06/05 00:56:11;;;;;;;;;;;;;;;17.58;46.43;98347.41;7390685;19;19937;-84
2023/06/05 00:58:38;;;;;;;;;;;;;;;17.57;47.96;98339.59;7388691;19;19950;-83
2023/06/05 01:01:05;;;;;;;;;;;;;;;17.58;49.36;98335.88;7388962;19;20317;-83
2023/06/05 01:03:34;;;;;;;;;;;;;;;17.54;49.00;98346.19;7390055;19;19910;-82
2023/06/05 01:06:11;;;;;;;;;;;;;;;17.54;48.14;98336.28;7392881;19;20249;-81
2023/06/05 01:08:41;;;;;;;;;;;;;;;17.50;47.90;98345.72;7396344;19;19923;-85
2023/06/05 01:11:27;;;;;;;;;;;;;;;17.48;47.71;98346.97;7390220;19;19932;-80
2023/06/05 01:13:54;;;;;;;;;;;;;;;17.46;48.23;98344.50;7389298;19;19915;-81
2023/06/05 01:16:30;;;;;;;;;;;;;;;17.43;48.87;98339.56;7389121;19;19915;-79
2023/06/05 01:19:02;;;;;;;;;;;;;;;17.39;50.39;98343.66;7390575;19;20349;-79
2023/06/05 01:21:30;;;;;;;;;;;;;;;17.28;49.17;98345.03;7393257;19;20021;-79
2023/06/05 01:23:58;;;;;;;;;;;;;;;17.23;50.20;98338.66;7392692;19;20782;-81
2023/06/05 01:26:33;;;;;;;;;;;;;;;17.22;49.77;98342.31;7394541;19;19975;-80
2023/06/05 01:28:59;;;;;;;;;;;;;;;17.21;50.79;98338.00;7392984;19;19978;-79
2023/06/05 01:31:27;;;;;;;;;;;;;;;17.02;47.87;98345.75;7384798;19;19914;-80
2023/06/05 01:33:56;;;;;;;;;;;;;;;16.97;51.19;98350.84;7382363;19;20326;-80
2023/06/05 01:36:23;;;;;;;;;;;;;;;16.95;49.40;98352.06;7389079;19;21648;-79
2023/06/05 01:38:51;;;;;;;;;;;;;;;16.90;50.18;98349.97;7389493;19;19915;-80
2023/06/05 01:41:18;;;;;;;;;;;;;;;16.90;51.08;98355.31;7387017;19;19927;-81
2023/06/05 01:43:46;;;;;;;;;;;;;;;16.83;48.73;98349.97;7390416;19;19981;-78
2023/06/05 01:46:12;;;;;;;;;;;;;;;16.84;51.22;98346.25;7389228;19;19978;-80
2023/06/05 01:48:39;;;;;;;;;;;;;;;16.82;51.40;98340.28;7389492;19;19923;-80
2023/06/05 01:51:06;;;;;;;;;;;;;;;16.81;51.70;98341.31;7388873;19;19919;-80
2023/06/05 01:53:33;;;;;;;;;;;;;;;16.75;51.06;98342.06;7385669;19;20582;-80
2023/06/05 01:56:02;;;;;;;;;;;;;;;16.70;50.54;98341.84;7390190;19;19935;-80
2023/06/05 01:58:30;;;;;;;;;;;;;;;16.68;52.17;98341.19;7388149;19;20310;-80
2023/06/05 02:00:59;;;;;;;;;;;;;;;16.69;51.74;98334.81;7389468;19;19926;-81
2023/06/05 02:03:26;;;;;;;;;;;;;;;16.69;51.68;98337.50;7389593;19;19987;-80
2023/06/05 02:05:54;;;;;;;;;;;;;;;16.65;50.86;98341.59;7383410;19;19950;-80
2023/06/05 02:08:22;;;;;;;;;;;;;;;16.64;52.95;98339.91;7380948;19;20364;-79
2023/06/05 02:10:50;;;;;;;;;;;;;;;16.62;50.99;98341.97;7385428;19;19919;-80
2023/06/05 02:13:18;;;;;;;;;;;;;;;16.58;51.58;98346.88;7383275;19;19956;-80
2023/06/05 02:15:45;;;;;;;;;;;;;;;16.60;51.83;98339.50;7388342;19;19914;-79
2023/06/05 02:18:16;;;;;;;;;;;;;;;16.59;51.95;98343.19;7392412;19;19914;-80
2023/06/05 02:20:43;;;;;;;;;;;;;;;16.52;50.43;98341.50;7395248;19;19915;-81
2023/06/05 02:23:11;;;;;;;;;;;;;;;16.44;49.87;98337.94;7392200;19;20623;-81
2023/06/05 02:25:37;;;;;;;;;;;;;;;16.47;51.86;98339.41;7388700;19;20458;-80
2023/06/05 02:28:04;;;;;;;;;;;;;;;16.43;51.05;98332.81;7395922;19;19926;-80
2023/06/05 02:30:32;;;;;;;;;;;;;;;16.41;51.88;98337.53;7387479;19;19922;-80
2023/06/05 02:33:00;;;;;;;;;;;;;;;16.36;51.58;98338.09;7389227;19;19929;-80
2023/06/05 02:35:29;;;;;;;;;;;;;;;16.36;53.12;98337.28;7383924;19;19923;-78
2023/06/05 02:37:59;;;;;;;;;;;;;;;16.33;53.03;98337.66;7384502;19;19918;-77
2023/06/05 02:40:26;;;;;;;;;;;;;;;16.29;52.57;98337.22;7381378;19;19922;-79
2023/06/05 02:42:56;;;;;;;;;;;;;;;16.29;52.85;98339.06;7384160;19;19926;-78
2023/06/05 02:45:26;;;;;;;;;;;;;;;16.26;51.57;98334.94;7383808;19;19931;-80
2023/06/05 02:47:53;;;;;;;;;;;;;;;16.24;53.13;98336.97;7388273;19;20392;-81
2023/06/05 02:50:19;;;;;;;;;;;;;;;16.18;50.82;98335.88;7379680;19;19923;-78
2023/06/05 02:52:50;;;;;;;;;;;;;;;16.09;51.31;98344.22;7385911;19;19915;-78
2023/06/05 02:55:23;;;;;;;;;;;;;;;16.07;52.87;98341.75;7384069;19;19911;-80
2023/06/05 02:57:52;;;;;;;;;;;;;;;16.05;52.08;98340.28;7385348;19;19915;-78
2023/06/05 03:00:26;;;;;;;;;;;;;;;16.00;53.14;98341.69;7384112;19;19919;-80
2023/06/05 03:02:55;;;;;;;;;;;;;;;15.94;53.00;98349.63;7385024;19;20356;-77
2023/06/05 03:05:28;;;;;;;;;;;;;;;15.92;54.16;98351.66;7384911;19;19919;-78
2023/06/05 03:08:01;;;;;;;;;;;;;;;15.95;54.96;98346.75;7382935;19;20344;-78
2023/06/05 03:10:28;;;;;;;;;;;;;;;15.95;54.39;98348.59;7383909;19;19932;-79
2023/06/05 03:12:56;;;;;;;;;;;;;;;15.92;53.72;98347.16;7384117;19;19919;-79
2023/06/05 03:15:25;;;;;;;;;;;;;;;15.92;54.11;98351.66;7377296;19;19933;-80
2023/06/05 03:17:52;;;;;;;;;;;;;;;15.93;54.56;98350.63;7385096;19;20330;-79
2023/06/05 03:20:22;;;;;;;;;;;;;;;15.92;54.88;98346.31;7383838;19;19918;-79
2023/06/05 03:22:49;;;;;;;;;;;;;;;15.84;53.11;98351.78;7387095;19;20356;-78
2023/06/05 03:25:15;;;;;;;;;;;;;;;15.84;54.64;98343.78;7386653;19;19915;-79
2023/06/05 03:27:44;;;;;;;;;;;;;;;15.80;54.61;98346.84;7383577;19;19915;-77
2023/06/05 03:30:16;;;;;;;;;;;;;;;15.77;54.07;98346.38;7381190;19;20310;-78
2023/06/05 03:32:45;;;;;;;;;;;;;;;15.76;55.27;98347.41;7383347;19;19919;-78
2023/06/05 03:35:12;;;;;;;;;;;;;;;15.75;54.95;98351.09;7383835;19;19915;-78
2023/06/05 03:37:40;;;;;;;;;;;;;;;15.76;55.45;98353.56;7384352;19;19922;-77
2023/06/05 03:40:08;;;;;;;;;;;;;;;15.67;52.81;98348.53;7383782;19;19938;-77
2023/06/05 03:42:36;;;;;;;;;;;;;;;15.68;56.17;98352.81;7386472;19;19943;-77
2023/06/05 03:45:03;;;;;;;;;;;;;;;15.67;55.62;98348.53;7389281;19;20084;-78
2023/06/05 03:47:30;;;;;;;;;;;;;;;15.65;53.76;98353.22;7382871;19;19923;-77
2023/06/05 03:50:00;;;;;;;;;;;;;;;15.64;55.48;98360.38;7389756;19;19939;-80
2023/06/05 03:52:29;;;;;;;;;;;;;;;15.62;56.27;98356.25;7389664;19;19918;-79
2023/06/05 03:54:55;;;;;;;;;;;;;;;15.60;56.46;98348.44;7392363;19;20242;-78
2023/06/05 03:57:22;;;;;;;;;;;;;;;15.64;56.29;98356.88;7393256;19;19994;-80
2023/06/05 03:59:50;;;;;;;;;;;;;;;15.64;57.08;98363.06;7391825;19;20352;-79
2023/06/05 04:02:17;;;;;;;;;;;;;;;15.64;56.58;98365.72;7388355;19;19923;-79
2023/06/05 04:04:44;;;;;;;;;;;;;;;15.60;54.81;98359.09;7381898;19;20545;-79
2023/06/05 04:07:11;;;;;;;;;;;;;;;15.62;57.17;98367.75;7389062;19;19946;-79
2023/06/05 04:09:38;;;;;;;;;;;;;;;15.65;57.68;98371.88;7389065;19;20585;-78
2023/06/05 04:12:05;;;;;;;;;;;;;;;15.68;56.18;98371.50;7391025;19;19911;-79
2023/06/05 04:14:33;;;;;;;;;;;;;;;15.67;55.66;98373.34;7387530;19;19923;-79
2023/06/05 04:17:00;;;;;;;;;;;;;;;15.73;57.97;98369.94;7391044;19;19937;-79
2023/06/05 04:19:27;;;;;;;;;;;;;;;15.77;58.30;98379.22;7387083;19;19921;-79
2023/06/05 04:21:56;;;;;;;;;;;;;;;15.66;54.03;98378.84;7382877;19;20714;-78
2023/06/05 04:24:25;;;;;;;;;;;;;;;15.49;53.21;98378.25;7381564;19;19982;-78
2023/06/05 04:26:52;;;;;;;;;;;;;;;15.35;53.55;98380.75;7387878;19;19919;-77
2023/06/05 04:29:19;;;;;;;;;;;;;;;15.35;55.70;98383.44;7389617;19;19915;-79
2023/06/05 04:31:47;;;;;;;;;;;;;;;15.45;57.73;98383.13;7385032;19;19918;-79
2023/06/05 04:34:17;;;;;;;;;;;;;;;15.45;55.89;98390.28;7384535;19;19919;-78
2023/06/05 04:36:46;;;;;;;;;;;;;;;15.43;54.25;98381.66;7383320;19;19927;-79
2023/06/05 04:39:17;;;;;;;;;;;;;;;15.40;54.23;98380.19;7385838;19;19943;-78
2023/06/05 04:41:47;;;;;;;;;;;;;;;15.44;55.15;98375.31;7388577;19;19918;-76
2023/06/05 04:44:29;;;;;;;;;;;;;;;15.46;54.21;98381.31;7379062;19;19919;-78
2023/06/05 04:46:56;;;;;;;;;;;;;;;15.52;57.01;98383.22;7384975;19;19922;-79
2023/06/05 04:49:23;;;;;;;;;;;;;;;15.50;55.04;98383.38;7387892;19;19939;-79
2023/06/05 04:51:50;;;;;;;;;;;;;;;15.49;54.21;98384.41;7383040;19;19974;-77
2023/06/05 04:54:17;;;;;;;;;;;;;;;15.46;54.87;98384.78;7379903;19;19915;-79
2023/06/05 04:56:45;;;;;;;;;;;;;;;15.52;55.26;98383.22;7380450;19;19930;-77
2023/06/05 04:59:12;;;;;;;;;;;;;;;15.52;54.49;98383.22;7392309;19;19947;-80
2023/06/05 05:01:40;;;;;;;;;;;;;;;15.51;54.45;98381.56;7385104;19;19962;-80
2023/06/05 05:04:08;;;;;;;;;;;;;;;15.52;54.58;98375.22;7383613;19;20434;-79
2023/06/05 05:06:35;;;;;;;;;;;;;;;15.64;55.42;98370.22;7391466;19;19919;-80
2023/06/05 05:09:01;;;;;;;;;;;;;;;15.67;54.54;98376.00;7392232;19;19918;-80
2023/06/05 05:11:31;;;;;;;;;;;;;;;15.80;54.88;98380.69;7387697;19;19915;-84
2023/06/05 05:13:58;;;;;;;;;;;;;;;15.86;54.05;98373.78;7393147;19;19951;-78
2023/06/05 05:16:25;;;;;;;;;;;;;;;15.90;54.30;98378.53;7391168;19;19950;-78
2023/06/05 05:18:51;;;;;;;;;;;;;;;15.88;52.77;98380.56;7394221;19;19932;-80
2023/06/05 05:21:18;;;;;;;;;;;;;;;15.92;53.52;98383.69;7388503;19;19957;-80
2023/06/05 05:23:45;;;;;;;;;;;;;;;15.92;54.39;98384.50;7387693;19;19926;-80
2023/06/05 05:26:11;;;;;;;;;;;;;;;15.99;51.70;98384.59;7388417;19;19926;-80
2023/06/05 05:28:43;;;;;;;;;;;;;;;16.06;54.00;98385.47;7390276;19;19925;-80
2023/06/05 05:31:10;;;;;;;;;;;;;;;16.16;53.40;98385.13;7387631;19;19974;-79
2023/06/05 05:33:37;;;;;;;;;;;;;;;16.19;53.83;98385.59;7387149;19;20253;-78
2023/06/05 05:36:04;;;;;;;;;;;;;;;16.25;53.40;98384.00;7391378;19;19929;-79
2023/06/05 05:38:31;;;;;;;;;;;;;;;16.35;57.12;98383.66;7389270;19;19940;-81
2023/06/05 05:40:58;;;;;;;;;;;;;;;16.29;54.42;98392.44;7390484;19;20356;-81
2023/06/05 05:43:25;;;;;;;;;;;;;;;16.34;53.59;98382.03;7376217;19;21352;-82
2023/06/05 05:45:52;;;;;;;;;;;;;;;16.36;53.65;98396.84;7376143;19;19917;-80
2023/06/05 05:48:19;;;;;;;;;;;;;;;16.40;54.58;98397.25;7391405;19;19966;-83
2023/06/05 05:50:45;;;;;;;;;;;;;;;16.32;53.80;98387.53;7388357;19;19929;-82
2023/06/05 05:53:12;;;;;;;;;;;;;;;16.37;54.05;98398.47;7392587;19;19918;-80
2023/06/05 05:55:39;;;;;;;;;;;;;;;16.41;53.61;98398.94;7390804;19;19922;-80
2023/06/05 05:58:06;;;;;;;;;;;;;;;16.49;53.48;98398.78;7394684;19;19988;-81
2023/06/05 06:00:34;;;;;;;;;;;;;;;16.52;52.17;98395.72;7388483;19;19922;-80
2023/06/05 06:03:01;;;;;;;;;;;;;;;16.56;51.73;98386.31;7390561;19;19926;-80
2023/06/05 06:05:29;;;;;;;;;;;;;;;16.53;51.47;98399.22;7380711;19;19938;-80
2023/06/05 06:07:56;;;;;;;;;;;;;;;16.61;50.64;98401.75;7389794;19;19918;-79
2023/06/05 06:10:23;;;;;;;;;;;;;;;16.72;51.10;98392.38;7390770;19;19914;-80
2023/06/05 06:12:50;;;;;;;;;;;;;;;16.78;50.77;98392.47;7392318;19;19915;-78
2023/06/05 06:15:17;;;;;;;;;;;;;;;16.89;52.37;98391.91;7389607;19;19996;-80
2023/06/05 06:17:44;;;;;;;;;;;;;;;16.98;51.97;98395.28;7388447;19;20241;-79
2023/06/05 06:20:12;;;;;;;;;;;;;;;17.02;51.10;98388.50;7390526;19;19923;-81
2023/06/05 06:22:40;;;;;;;;;;;;;;;17.11;50.10;98392.69;7390312;19;19914;-80
2023/06/05 06:25:07;;;;;;;;;;;;;;;17.15;51.11;98397.63;7388174;19;19923;-83
2023/06/05 06:27:34;;;;;;;;;;;;;;;17.15;51.02;98390.44;7387335;19;19971;-82
2023/06/05 06:30:02;;;;;;;;;;;;;;;16.97;51.66;98396.28;7390521;19;19926;-80
2023/06/05 06:32:28;;;;;;;;;;;;;;;17.11;50.19;98395.34;7390193;19;20377;-83
2023/06/05 06:34:55;;;;;;;;;;;;;;;17.06;50.23;98400.47;7387081;19;19943;-79
2023/06/05 06:37:22;;;;;;;;;;;;;;;17.07;49.72;98394.09;7387443;19;19927;-81
2023/06/05 06:39:49;;;;;;;;;;;;;;;17.09;50.41;98396.56;7390304;19;19915;-80
2023/06/05 06:42:16;;;;;;;;;;;;;;;17.21;51.09;98403.00;7390574;19;20657;-85
2023/06/05 06:44:55;;;;;;;;;;;;;;;17.37;50.33;98393.81;7383206;19;19929;-81
2023/06/05 06:47:24;;;;;;;;;;;;;;;17.48;49.50;98393.28;7387540;19;19923;-81
2023/06/05 06:49:51;;;;;;;;;;;;;;;17.51;49.86;98395.53;7388168;19;19923;-80
2023/06/05 06:52:19;;;;;;;;;;;;;;;17.62;49.48;98396.00;7385595;19;19945;-79
2023/06/05 06:54:50;;;;;;;;;;;;;;;17.66;49.11;98392.69;7390170;19;20339;-84
2023/06/05 06:57:16;;;;;;;;;;;;;;;17.77;47.01;98400.16;7390774;19;20249;-78
2023/06/05 06:59:44;;;;;;;;;;;;;;;17.88;49.21;98393.44;7390119;19;19930;-79
2023/06/05 07:02:15;;;;;;;;;;;;;;;17.97;47.53;98394.06;7384951;19;19927;-85
2023/06/05 07:04:43;;;;;;;;;;;;;;;17.83;48.21;98389.72;7386298;19;21360;-82
2023/06/05 07:07:11;;;;;;;;;;;;;;;17.89;49.25;98389.72;7389133;19;19926;-83
2023/06/05 07:09:38;;;;;;;;;;;;;;;17.99;48.54;98389.34;7387597;19;19986;-82
2023/06/05 07:12:05;;;;;;;;;;;;;;;18.07;49.25;98393.69;7386958;19;19929;-78
2023/06/05 07:14:33;;;;;;;;;;;;;;;18.10;48.79;98386.06;7385361;19;19930;-83
2023/06/05 07:17:01;;;;;;;;;;;;;;;18.06;48.35;98386.66;7388916;19;19915;-79
2023/06/05 07:19:30;;;;;;;;;;;;;;;18.26;49.02;98392.88;7386201;19;19914;-83
2023/06/05 07:21:57;;;;;;;;;;;;;;;18.29;48.32;98384.41;7383316;19;19915;-79
2023/06/05 07:24:24;;;;;;;;;;;;;;;18.37;48.69;98388.75;7384134;19;19918;-83
2023/06/05 07:26:55;;;;;;;;;;;;;;;18.48;47.34;98392.66;7383089;19;19922;-80
2023/06/05 07:29:25;;;;;;;;;;;;;;;18.57;48.50;98388.78;7389173;19;19925;-81
2023/06/05 07:31:52;;;;;;;;;;;;;;;18.65;46.44;98388.56;7388504;19;19918;-81
2023/06/05 07:34:19;;;;;;;;;;;;;;;18.76;46.34;98382.59;7387940;19;20624;-79
2023/06/05 07:36:46;;;;;;;;;;;;;;;18.92;45.71;98383.19;7388251;19;20411;-82
2023/06/05 07:39:13;;;;;;;;;;;;;;;18.88;46.14;98373.91;7389491;19;19936;-84
2023/06/05 07:41:39;;;;;;;;;;;;;;;18.94;46.95;98383.81;7381383;19;19922;-83
2023/06/05 07:44:08;;;;;;;;;;;;;;;19.01;47.98;98380.09;7388123;19;20259;-84
2023/06/05 07:46:35;;;;;;;;;;;;;;;19.08;47.38;98377.38;7389841;19;19931;-81
2023/06/05 07:49:02;;;;;;;;;;;;;;;19.07;47.24;98373.88;7389676;19;19940;-82
2023/06/05 07:51:29;;;;;;;;;;;;;;;19.17;46.97;98377.97;7391766;19;19933;-81
2023/06/05 07:53:56;;;;;;;;;;;;;;;19.21;46.41;98379.19;7389036;19;19987;-81
2023/06/05 07:56:23;;;;;;;;;;;;;;;19.27;47.81;98379.19;7390899;19;19935;-82
2023/06/05 07:58:51;;;;;;;;;;;;;;;19.43;49.76;98377.06;7386203;19;20531;-79
2023/06/05 08:01:20;;;;;;;;;;;;;;;19.50;46.99;98373.31;7384087;19;19922;-82
2023/06/05 08:03:47;;;;;;;;;;;;;;;19.29;47.51;98368.22;7380447;19;20256;-81
2023/06/05 08:06:15;;;;;;;;;;;;;;;19.57;48.30;98378.66;7387945;19;19919;-81
2023/06/05 08:08:42;;;;;;;;;;;;;;;19.70;47.74;98381.31;7390969;19;19925;-80
2023/06/05 08:11:09;;;;;;;;;;;;;;;19.74;48.25;98373.63;7384081;19;19926;-80
2023/06/05 08:13:37;;;;;;;;;;;;;;;19.78;48.50;98369.50;7385960;19;19922;-83
2023/06/05 08:16:05;;;;;;;;;;;;;;;19.92;46.88;98365.69;7394698;19;19928;-84
2023/06/05 08:18:32;;;;;;;;;;;;;;;19.97;46.62;98369.59;7402186;19;19907;-84
2023/06/05 08:21:00;;;;;;;;;;;;;;;20.06;46.71;98365.59;7397716;19;19915;-80
2023/06/05 08:23:26;;;;;;;;;;;;;;;20.14;47.83;98368.88;7397603;19;19919;-81
2023/06/05 08:25:53;;;;;;;;;;;;;;;20.37;49.12;98367.44;7402168;19;20357;-86
2023/06/05 08:28:20;;;;;;;;;;;;;;;20.40;47.42;98367.00;7399039;19;19932;-80
2023/06/05 08:30:47;;;;;;;;;;;;;;;20.43;47.51;98365.75;7402074;19;19919;-81
2023/06/05 08:33:13;;;;;;;;;;;;;;;20.65;49.17;98358.16;7407694;19;19936;-78
2023/06/05 08:35:40;;;;;;;;;;;;;;;20.72;49.56;98356.22;7392526;19;19966;-81
2023/06/05 08:38:07;;;;;;;;;;;;;;;20.74;46.97;98359.50;7393678;19;19978;-81
2023/06/05 08:40:34;;;;;;;;;;;;;;;20.79;46.27;98357.78;7389291;19;19925;-81
2023/06/05 08:43:03;;;;;;;;;;;;;;;20.69;47.71;98353.97;7392797;19;19931;-86
2023/06/05 08:45:33;;;;;;;;;;;;;;;20.89;46.69;98351.09;7390221;19;19986;-82
2023/06/05 08:48:03;;;;;;;;;;;;;;;21.03;47.78;98352.59;7393969;19;19986;-83
2023/06/05 08:50:30;;;;;;;;;;;;;;;21.14;46.08;98359.09;7391714;19;19915;-81
2023/06/05 08:53:00;;;;;;;;;;;;;;;21.12;47.88;98353.13;7393759;19;20002;-83
2023/06/05 08:55:28;;;;;;;;;;;;;;;21.33;47.61;98359.91;7393429;19;19927;-81
2023/06/05 08:57:55;;;;;;;;;;;;;;;21.40;46.52;98356.09;7391335;19;19978;-82
2023/06/05 09:00:22;;;;;;;;;;;;;;;21.34;48.91;98350.78;7384679;19;19947;-79
2023/06/05 09:02:49;;;;;;;;;;;;;;;21.39;48.64;98349.09;7387154;19;19939;-78
2023/06/05 09:05:16;;;;;;;;;;;;;;;21.50;48.39;98342.13;7385416;19;19929;-83
2023/06/05 09:07:42;;;;;;;;;;;;;;;21.50;47.26;98338.63;7395005;19;19936;-82
2023/06/05 09:10:30;;;;;;;;;;;;;;;21.58;45.96;98338.31;7398192;19;19921;-79
2023/06/05 09:13:01;;;;;;;;;;;;;;;21.77;47.57;98334.50;7393505;19;19955;-81
2023/06/05 09:15:29;;;;;;;;;;;;;;;21.96;48.75;98335.28;7394403;19;20316;-80
2023/06/05 09:18:08;;;;;;;;;;;;;;;22.08;47.97;98346.91;7393645;19;19914;-79
2023/06/05 09:20:36;;;;;;;;;;;;;;;22.14;47.32;98334.38;7388076;19;19927;-81
2023/06/05 09:23:03;;;;;;;;;;;;;;;22.25;47.30;98335.47;7389204;19;19971;-81
2023/06/05 09:25:50;;;;;;;;;;;;;;;22.24;45.48;98334.66;7389914;19;19915;-83
2023/06/05 09:28:17;;;;;;;;;;;;;;;22.32;46.33;98331.63;7395627;19;19992;-82
2023/06/05 09:30:57;;;;;;;;;;;;;;;22.55;47.17;98333.53;7392241;19;19926;-79
2023/06/05 09:33:24;;;;;;;;;;;;;;;22.62;44.75;98330.72;7393372;19;19915;-84
2023/06/05 09:36:11;;;;;;;;;;;;;;;22.79;44.16;98326.25;7391600;19;19917;-80
2023/06/05 09:38:39;;;;;;;;;;;;;;;22.85;45.40;98319.06;7389671;19;19915;-80
2023/06/05 09:41:06;;;;;;;;;;;;;;;22.88;44.15;98313.22;7387211;19;19941;-79
2023/06/05 09:43:33;;;;;;;;;;;;;;;23.07;41.91;98315.81;7391242;19;19951;-81
2023/06/05 09:46:10;;;;;;;;;;;;;;;23.27;42.27;98321.59;7393315;19;19922;-82
2023/06/05 09:48:38;;;;;;;;;;;;;;;23.43;42.59;98310.06;7392735;19;20320;-82
2023/06/05 09:51:12;;;;;;;;;;;;;;;23.57;40.81;98307.91;7392303;19;19969;-82
2023/06/05 09:53:43;;;;;;;;;;;;;;;23.88;38.70;98316.56;7388064;19;19921;-80
2023/06/05 09:56:14;;;;;;;;;;;;;;;24.12;37.32;98309.16;7389382;19;19935;-81
2023/06/05 09:58:45;;;;;;;;;;;;;;;24.70;36.86;98299.00;7390504;19;19919;-81
2023/06/05 10:01:13;;;;;;;;;;;;;;;24.96;35.06;98294.72;7383911;19;20007;-79
2023/06/05 10:03:40;;;;;;;;;;;;;;;25.41;35.20;98291.00;7383195;19;19946;-80
2023/06/05 10:06:07;;;;;;;;;;;;;;;25.43;31.67;98293.44;7388631;19;19987;-80
2023/06/05 10:08:37;;;;;;;;;;;;;;;25.68;33.08;98291.00;7388998;19;19931;-85
2023/06/05 10:11:04;;;;;;;;;;;;;;;25.84;29.89;98284.66;7384084;19;19919;-79
2023/06/05 10:13:31;;;;;;;;;;;;;;;26.14;31.07;98296.03;7385718;19;19925;-83
2023/06/05 10:15:57;;;;;;;;;;;;;;;26.34;32.94;98296.19;7385705;19;19919;-81
2023/06/05 10:18:24;;;;;;;;;;;;;;;26.39;31.76;98290.81;7387308;19;19923;-80
2023/06/05 10:20:51;;;;;;;;;;;;;;;26.96;32.00;98285.75;7382983;19;20255;-79
2023/06/05 10:23:18;;;;;;;;;;;;;;;27.18;28.44;98291.03;7387934;19;19940;-79
2023/06/05 10:25:45;;;;;;;;;;;;;;;27.11;30.89;98281.19;7389037;19;19919;-79
2023/06/05 10:28:15;;;;;;;;;;;;;;;27.15;28.29;98282.31;7384537;19;19934;-79
2023/06/05 10:30:41;;;;;;;;;;;;;;;27.38;29.56;98282.94;7386597;19;19918;-85
2023/06/05 10:33:09;;;;;;;;;;;;;;;27.24;29.16;98281.81;7387253;19;19932;-82
2023/06/05 10:35:40;;;;;;;;;;;;;;;26.93;31.25;98285.19;7387090;19;19918;-78
2023/06/05 10:38:13;;;;;;;;;;;;;;;26.69;29.21;98284.78;7383121;19;19919;-78
2023/06/05 10:40:40;;;;;;;;;;;;;;;26.28;30.30;98287.22;7384723;19;19942;-83
2023/06/05 10:43:25;;;;;;;;;;;;;;;25.91;31.51;98291.75;7386025;19;19922;-82
2023/06/05 10:45:52;;;;;;;;;;;;;;;25.48;29.04;98278.03;7382906;19;19948;-82
2023/06/05 10:48:52;;;;;;;;;;;;;;;25.26;30.19;98288.09;7388341;19;19946;-79
2023/06/05 10:51:33;;;;;;;;;;;;;;;25.03;33.02;98289.94;7385205;19;19923;-84
2023/06/05 10:54:00;;;;;;;;;;;;;;;24.79;30.35;98280.44;7388302;19;19919;-81
2023/06/05 10:56:46;;;;;;;;;;;;;;;24.69;30.12;98279.22;7390803;19;20266;-81
2023/06/05 10:59:13;;;;;;;;;;;;;;;24.91;30.57;98260.31;7385886;19;20230;-82
2023/06/05 11:01:41;;;;;;;;;;;;;;;24.95;32.22;98272.25;7385528;19;19919;-81
2023/06/05 11:04:07;;;;;;;;;;;;;;;25.10;31.19;98274.34;7385303;19;19918;-81
2023/06/05 11:06:37;;;;;;;;;;;;;;;25.15;29.91;98274.44;7389327;19;19930;-83
2023/06/05 11:09:13;;;;;;;;;;;;;;;25.12;33.15;98268.66;7388781;19;19925;-80
2023/06/05 11:11:59;;;;;;;;;;;;;;;25.00;32.66;98268.00;7391150;19;20253;-82
2023/06/05 11:14:42;;;;;;;;;;;;;;;24.89;33.31;98261.63;7392515;19;19937;-79
2023/06/05 11:17:27;;;;;;;;;;;;;;;24.84;33.94;98269.69;7382514;19;19962;-81
2023/06/05 11:19:54;;;;;;;;;;;;;;;24.71;33.21;98271.69;7386448;19;19915;-83
2023/06/05 11:22:21;;;;;;;;;;;;;;;24.70;31.94;98267.34;7388971;19;19923;-81
2023/06/05 11:25:08;;;;;;;;;;;;;;;24.75;32.18;98261.19;7388316;19;19982;-80
2023/06/05 11:27:48;;;;;;;;;;;;;;;24.77;32.36;98259.03;7388779;19;19915;-81
2023/06/05 11:30:16;;;;;;;;;;;;;;;24.85;31.76;98258.59;7382321;19;20537;-82
2023/06/05 11:32:59;;;;;;;;;;;;;;;24.82;31.35;98259.09;7366234;19;19914;-84
2023/06/05 11:35:29;;;;;;;;;;;;;;;24.89;31.79;98257.03;7374411;19;20156;-77
2023/06/05 11:38:08;;;;;;;;;;;;;;;24.91;33.24;98249.50;7381848;19;19915;-80
2023/06/05 11:40:35;;;;;;;;;;;;;;;24.81;31.55;98243.94;7388175;19;19930;-79
2023/06/05 11:43:05;;;;;;;;;;;;;;;24.69;33.78;98246.75;7386236;19;19915;-81
2023/06/05 11:45:33;;;;;;;;;;;;;;;24.65;33.21;98245.63;7384363;19;19914;-82
2023/06/05 11:48:04;;;;;;;;;;;;;;;24.66;30.64;98241.84;7385465;19;20238;-83
2023/06/05 11:50:31;;;;;;;;;;;;;;;24.62;31.58;98250.72;7386489;19;20543;-81
2023/06/05 11:53:04;;;;;;;;;;;;;;;24.38;31.16;98241.97;7382758;19;19943;-84
2023/06/05 11:55:43;;;;;;;;;;;;;;;24.51;31.80;98250.59;7384332;19;19938;-79
2023/06/05 11:58:10;;;;;;;;;;;;;;;24.49;34.61;98249.22;7384006;19;19914;-79
2023/06/05 12:00:37;;;;;;;;;;;;;;;24.45;30.53;98248.88;7385725;19;19991;-81
2023/06/05 12:03:16;;;;;;;;;;;;;;;24.48;33.75;98242.97;7387042;19;19946;-80
2023/06/05 12:05:44;;;;;;;;;;;;;;;24.61;30.76;98249.91;7393335;19;20264;-86
2023/06/05 12:08:27;;;;;;;;;;;;;;;24.54;32.87;98241.16;7391570;19;20284;-80
2023/06/05 12:10:56;;;;;;;;;;;;;;;24.78;33.19;98240.91;7392058;19;19925;-79
2023/06/05 12:13:22;;;;;;;;;;;;;;;24.81;30.89;98233.13;7389682;19;19987;-80
2023/06/05 12:15:56;;;;;;;;;;;;;;;25.06;32.78;98229.09;7385643;19;19926;-84
2023/06/05 12:18:33;;;;;;;;;;;;;;;25.19;29.42;98226.00;7396341;19;19915;-85
2023/06/05 12:21:00;;;;;;;;;;;;;;;25.37;31.11;98220.25;7389906;19;19978;-81
2023/06/05 12:23:28;;;;;;;;;;;;;;;25.34;28.85;98215.34;7390389;19;19914;-79
2023/06/05 12:25:58;;;;;;;;;;;;;;;25.32;29.10;98224.81;7390566;19;19929;-81
2023/06/05 12:28:26;;;;;;;;;;;;;;;25.22;31.50;98216.56;7394300;19;19911;-80
2023/06/05 12:30:53;;;;;;;;;;;;;;;25.16;31.41;98224.63;7390537;19;19919;-77
2023/06/05 12:33:20;;;;;;;;;;;;;;;24.85;31.13;98223.41;7390403;19;19915;-85
2023/06/05 12:35:46;;;;;;;;;;;;;;;24.86;32.85;98222.38;7390081;19;19910;-80
2023/06/05 12:38:13;;;;;;;;;;;;;;;24.77;32.85;98214.94;7396585;19;19918;-82
2023/06/05 12:40:42;;;;;;;;;;;;;;;24.64;32.93;98208.00;7389013;19;19919;-78
2023/06/05 12:43:26;;;;;;;;;;;;;;;24.45;32.17;98211.00;7386311;19;19926;-78
2023/06/05 12:45:55;;;;;;;;;;;;;;;24.52;32.81;98205.44;7391227;19;19919;-80
2023/06/05 12:48:23;;;;;;;;;;;;;;;24.59;30.38;98207.94;7394740;19;20015;-84
2023/06/05 12:50:50;;;;;;;;;;;;;;;24.77;30.37;98202.22;7390915;19;19985;-83
2023/06/05 12:53:18;;;;;;;;;;;;;;;24.87;32.59;98204.25;7390058;19;19914;-79
2023/06/05 12:55:44;;;;;;;;;;;;;;;25.03;30.84;98197.94;7389776;19;19923;-81
2023/06/05 12:58:11;;;;;;;;;;;;;;;25.26;29.37;98199.56;7390704;19;19929;-85